Time;durP1;ratioP1;P1;durP2;ratioP2;P2;SDS_P1;SDS_P2;PMS_P1;PMS_P2;Temp;Humidity;BMP_temperature;BMP_pressure;BME280_temperature;BME280_humidity;BME280_pressure;Samples;Min_cycle;Max_cycle;Signal;HPM_P1;HPM_P2
2021/06/03 00:02:01;;;;;;;7.87;7.17;;;;;;;19.85;48.58;101576.88;5040382;28;20207;-65
2021/06/03 00:04:26;;;;;;;8.50;7.80;;;;;;;20.27;47.38;101586.81;5042217;28;20200;-65
2021/06/03 00:06:52;;;;;;;7.60;6.90;;;;;;;20.46;46.96;101579.41;5039160;28;20201;-64
2021/06/03 00:09:17;;;;;;;8.43;7.53;;;;;;;20.40;47.16;101579.50;5037368;28;20445;-65
2021/06/03 00:11:42;;;;;;;8.53;7.67;;;;;;;20.39;47.14;101575.13;5036954;28;20216;-65
2021/06/03 00:14:09;;;;;;;7.83;7.13;;;;;;;20.29;47.38;101582.34;5037918;28;20216;-65
2021/06/03 00:16:34;;;;;;;8.50;7.70;;;;;;;20.05;48.08;101588.06;5038628;28;20198;-65
2021/06/03 00:19:02;;;;;;;7.80;7.10;;;;;;;19.97;48.06;101596.09;5037350;28;20774;-65
2021/06/03 00:21:28;;;;;;;8.00;7.30;;;;;;;20.25;47.72;101585.06;5057701;28;20218;-66
2021/06/03 00:23:53;;;;;;;7.73;7.03;;;;;;;20.53;47.07;101581.03;5057710;28;20700;-66
2021/06/03 00:26:19;;;;;;;11.20;7.60;;;;;;;20.16;47.20;101579.03;5049578;28;20248;-66
2021/06/03 00:28:44;;;;;;;7.70;7.17;;;;;;;20.19;47.78;101576.34;5037565;28;22432;-66
2021/06/03 00:31:09;;;;;;;8.23;7.47;;;;;;;19.72;48.74;101585.88;5047925;28;20217;-66
2021/06/03 00:33:34;;;;;;;8.00;7.10;;;;;;;19.46;49.46;101587.13;5056393;28;20234;-66
2021/06/03 00:36:00;;;;;;;8.20;7.50;;;;;;;19.70;48.70;101587.69;5043436;28;20186;-66
2021/06/03 00:38:25;;;;;;;8.33;7.63;;;;;;;19.71;48.92;101580.63;5052562;28;20284;-66
2021/06/03 00:40:51;;;;;;;7.87;7.13;;;;;;;19.45;49.54;101581.88;5059676;28;20166;-66
2021/06/03 00:43:16;;;;;;;8.63;7.17;;;;;;;19.44;49.70;101586.25;5061527;28;20623;-66
2021/06/03 00:45:42;;;;;;;9.30;8.13;;;;;;;19.72;49.00;101575.28;5050557;28;20217;-66
2021/06/03 00:48:08;;;;;;;8.00;7.20;;;;;;;19.26;50.22;101586.53;5042335;28;20269;-66
2021/06/03 00:50:39;;;;;;;8.33;7.63;;;;;;;19.44;49.74;101583.63;5041426;28;20496;-66
2021/06/03 00:53:07;;;;;;;9.03;8.13;;;;;;;19.36;49.82;101580.22;5040759;28;20420;-66
2021/06/03 00:55:33;;;;;;;7.70;6.90;;;;;;;19.83;48.62;101581.31;5041083;28;20443;-66
2021/06/03 00:57:59;;;;;;;10.50;7.63;;;;;;;19.46;49.83;101581.84;5041875;28;20457;-66
2021/06/03 01:00:25;;;;;;;7.77;7.10;;;;;;;19.62;49.25;101571.03;5040607;28;20767;-65
2021/06/03 01:02:50;;;;;;;8.33;7.70;;;;;;;19.74;48.99;101576.16;5040690;28;20182;-66
2021/06/03 01:05:20;;;;;;;8.43;7.57;;;;;;;18.93;50.87;101572.81;5047539;28;20544;-66
2021/06/03 01:07:46;;;;;;;8.60;7.80;;;;;;;19.03;50.58;101571.81;5040730;28;20179;-65
2021/06/03 01:10:11;;;;;;;7.50;6.80;;;;;;;19.10;50.42;101576.13;5042342;28;20715;-66
2021/06/03 01:12:52;;;;;;;8.37;7.67;;;;;;;19.44;49.72;101574.81;5040435;28;20388;-66
2021/06/03 01:15:18;;;;;;;7.93;7.23;;;;;;;19.07;50.73;101576.19;5055339;28;20314;-65
2021/06/03 01:17:44;;;;;;;8.47;7.47;;;;;;;19.13;50.49;101573.47;5043609;28;20781;-65
2021/06/03 01:20:11;;;;;;;8.03;7.33;;;;;;;19.12;50.60;101571.72;5049144;28;20522;-65
2021/06/03 01:22:48;;;;;;;7.73;7.13;;;;;;;19.18;50.63;101576.03;5051110;28;20404;-65
2021/06/03 01:25:15;;;;;;;7.97;7.27;;;;;;;19.22;50.37;101572.47;5023052;28;20742;-65
2021/06/03 01:27:41;;;;;;;8.10;7.50;;;;;;;18.93;50.94;101572.81;5040283;28;20475;-65
2021/06/03 01:30:16;;;;;;;8.40;7.70;;;;;;;19.01;50.63;101573.59;5029337;28;20579;-65
2021/06/03 01:32:49;;;;;;;8.23;7.43;;;;;;;18.72;51.24;101574.78;5040473;28;20201;-65
2021/06/03 01:35:20;;;;;;;7.87;7.27;;;;;;;18.71;51.16;101578.31;5040273;28;20399;-65
2021/06/03 01:37:46;;;;;;;8.20;7.50;;;;;;;19.01;50.96;101578.88;5040031;28;20732;-65
2021/06/03 01:40:16;;;;;;;8.87;7.27;;;;;;;19.05;50.54;101571.81;5040704;28;20427;-64
2021/06/03 01:42:43;;;;;;;8.53;7.73;;;;;;;19.14;49.71;101569.91;5040068;28;20448;-64
2021/06/03 01:45:09;;;;;;;10.03;7.60;;;;;;;19.00;50.39;101570.09;5046785;28;20411;-64
2021/06/03 01:47:34;;;;;;;8.13;7.50;;;;;;;19.49;49.29;101573.84;5059949;28;20666;-65
2021/06/03 01:50:00;;;;;;;8.40;7.70;;;;;;;19.13;50.15;101575.22;5055602;28;20268;-65
2021/06/03 01:52:25;;;;;;;10.40;7.30;;;;;;;18.97;50.93;101586.00;5053943;28;20198;-64
2021/06/03 01:54:52;;;;;;;8.43;7.73;;;;;;;19.15;50.31;101576.97;5039131;28;20520;-64
2021/06/03 01:57:19;;;;;;;8.10;7.40;;;;;;;19.33;49.43;101583.75;5039473;28;20193;-64
2021/06/03 01:59:44;;;;;;;8.43;7.73;;;;;;;18.96;50.57;101583.38;5042263;28;20436;-65
2021/06/03 02:02:09;;;;;;;8.70;7.90;;;;;;;19.02;50.49;101567.44;5059102;28;20828;-65
2021/06/03 02:04:35;;;;;;;9.50;7.93;;;;;;;18.91;50.83;101569.34;5059498;28;20177;-64
2021/06/03 02:07:00;;;;;;;8.20;7.37;;;;;;;19.18;50.08;101576.91;5059880;28;20523;-64
2021/06/03 02:09:26;;;;;;;8.60;7.87;;;;;;;19.12;49.99;101581.41;5055300;28;20174;-64
2021/06/03 02:11:51;;;;;;;8.67;7.73;;;;;;;19.11;50.27;101575.25;5039434;28;20212;-64
2021/06/03 02:14:19;;;;;;;8.60;7.73;;;;;;;18.68;50.92;101599.47;5039860;28;20170;-66
2021/06/03 02:16:56;;;;;;;11.10;8.40;;;;;;;18.85;51.08;101581.69;5038564;28;20244;-65
2021/06/03 02:19:31;;;;;;;8.70;7.90;;;;;;;19.30;50.22;101577.66;5038292;28;20419;-66
2021/06/03 02:21:57;;;;;;;8.60;7.90;;;;;;;18.89;50.98;101582.56;5037752;28;20445;-66
2021/06/03 02:24:22;;;;;;;8.37;7.70;;;;;;;18.84;51.09;101579.94;5038504;28;20471;-66
2021/06/03 02:26:48;;;;;;;8.27;7.50;;;;;;;19.20;50.09;101574.28;5057242;28;20185;-66
2021/06/03 02:29:16;;;;;;;8.70;8.00;;;;;;;18.78;50.90;101580.03;5039379;28;20193;-66
2021/06/03 02:31:41;;;;;;;7.83;7.20;;;;;;;18.97;50.19;101575.44;5040658;28;20460;-65
2021/06/03 02:34:07;;;;;;;8.30;7.53;;;;;;;18.68;51.22;101571.28;5044802;28;20418;-65
2021/06/03 02:36:32;;;;;;;9.00;8.30;;;;;;;18.68;51.17;101579.22;5058985;28;20227;-65
2021/06/03 02:38:58;;;;;;;8.17;7.47;;;;;;;18.92;50.29;101586.94;5059534;28;20450;-66
2021/06/03 02:41:23;;;;;;;7.90;7.20;;;;;;;18.75;51.30;101581.81;5054459;28;20181;-65
2021/06/03 02:43:49;;;;;;;8.13;7.43;;;;;;;18.76;51.19;101583.56;5058689;28;20181;-65
2021/06/03 02:46:17;;;;;;;8.00;7.37;;;;;;;18.92;50.81;101581.66;5052057;28;20177;-66
2021/06/03 02:48:43;;;;;;;8.13;7.53;;;;;;;18.47;51.69;101590.03;5038845;28;20210;-65
2021/06/03 02:51:10;;;;;;;9.67;7.73;;;;;;;18.50;51.84;101582.94;5039542;28;20829;-65
2021/06/03 02:53:35;;;;;;;8.40;7.70;;;;;;;18.58;52.02;101580.22;5039035;28;20820;-65
2021/06/03 02:56:01;;;;;;;8.07;7.37;;;;;;;19.14;50.07;101583.13;5038777;28;20400;-65
2021/06/03 02:58:26;;;;;;;8.40;7.67;;;;;;;18.87;50.90;101584.31;5045639;28;20186;-65
2021/06/03 03:00:51;;;;;;;8.47;7.77;;;;;;;18.68;51.26;101584.50;5047924;28;20205;-65
2021/06/03 03:03:18;;;;;;;8.70;8.00;;;;;;;18.67;51.64;101581.88;5037820;28;20268;-65
2021/06/03 03:05:44;;;;;;;8.73;7.57;;;;;;;18.65;51.68;101584.53;5038400;28;20203;-65
2021/06/03 03:08:10;;;;;;;8.37;7.60;;;;;;;18.89;51.44;101589.59;5039078;28;20445;-65
2021/06/03 03:10:38;;;;;;;9.20;8.30;;;;;;;18.22;53.17;101599.94;5040064;28;20442;-65
2021/06/03 03:13:05;;;;;;;9.77;8.87;;;;;;;18.54;52.22;101583.78;5058211;28;20402;-65
2021/06/03 03:15:30;;;;;;;10.43;8.93;;;;;;;18.76;51.94;101587.06;5059027;28;20432;-65
2021/06/03 03:17:56;;;;;;;17.33;9.30;;;;;;;18.57;52.39;101585.53;5058183;28;20474;-65
2021/06/03 03:20:23;;;;;;;9.43;8.63;;;;;;;18.47;52.84;101593.53;5051327;28;20244;-64
2021/06/03 03:22:50;;;;;;;9.70;8.90;;;;;;;18.50;52.86;101593.50;5038516;28;20182;-65
2021/06/03 03:25:16;;;;;;;8.33;7.63;;;;;;;18.03;53.83;101594.78;5038165;28;20476;-64
2021/06/03 03:27:42;;;;;;;10.87;8.33;;;;;;;18.28;53.35;101600.75;5038164;28;20395;-65
2021/06/03 03:30:11;;;;;;;9.20;8.40;;;;;;;18.86;51.96;101595.75;5039933;28;20443;-65
2021/06/03 03:32:36;;;;;;;9.40;8.60;;;;;;;18.84;51.89;101592.28;5048619;28;20523;-65
2021/06/03 03:35:03;;;;;;;9.20;8.50;;;;;;;19.24;50.68;101588.31;5056969;28;20550;-65
2021/06/03 03:37:29;;;;;;;9.80;8.97;;;;;;;19.31;50.63;101595.28;5058234;28;20173;-65
2021/06/03 03:39:56;;;;;;;9.30;8.50;;;;;;;18.96;51.20;101596.59;5055785;28;20453;-65
2021/06/03 03:42:21;;;;;;;8.50;7.80;;;;;;;19.44;49.96;101596.84;5045425;28;20264;-65
2021/06/03 03:44:47;;;;;;;9.27;8.37;;;;;;;20.34;47.98;101590.22;5058393;28;20489;-65
2021/06/03 03:47:12;;;;;;;8.43;7.73;;;;;;;20.88;45.86;101594.56;5058144;28;20182;-65
2021/06/03 03:49:37;;;;;;;9.57;8.70;;;;;;;21.24;45.40;101589.38;5055273;28;20269;-65
2021/06/03 03:52:03;;;;;;;9.00;8.13;;;;;;;20.50;46.57;101601.41;5051908;28;20259;-65
2021/06/03 03:54:29;;;;;;;7.70;7.10;;;;;;;21.29;44.84;101595.47;5037702;28;20236;-65
2021/06/03 03:56:54;;;;;;;9.30;8.40;;;;;;;20.75;46.50;101599.19;5039014;28;20272;-65
2021/06/03 03:59:20;;;;;;;8.67;7.70;;;;;;;21.44;44.52;101596.91;5041137;28;20523;-64
2021/06/03 04:01:46;;;;;;;8.90;8.20;;;;;;;21.50;44.82;101590.59;5043766;28;20198;-65
2021/06/03 04:04:11;;;;;;;8.47;7.77;;;;;;;19.84;47.96;101593.66;5037873;28;20179;-64
2021/06/03 04:06:38;;;;;;;9.13;8.40;;;;;;;21.20;45.10;101593.88;5038320;28;20395;-64
2021/06/03 04:09:04;;;;;;;9.47;8.30;;;;;;;21.53;44.22;101593.22;5037017;28;20174;-65
2021/06/03 04:11:30;;;;;;;8.53;7.73;;;;;;;21.86;42.88;101590.69;5037478;28;20468;-64
2021/06/03 04:13:55;;;;;;;9.20;8.40;;;;;;;21.86;43.61;101596.00;5038120;28;20404;-65
2021/06/03 04:16:20;;;;;;;10.43;8.10;;;;;;;21.86;43.76;101590.69;5040658;28;20237;-64
2021/06/03 04:18:46;;;;;;;8.40;7.50;;;;;;;22.12;43.07;101606.00;5041522;28;20174;-64
2021/06/03 04:21:11;;;;;;;8.90;8.10;;;;;;;21.60;44.10;101607.22;5041818;28;20181;-65
2021/06/03 04:23:36;;;;;;;9.20;8.30;;;;;;;21.33;45.00;101605.09;5041595;28;20182;-65
2021/06/03 04:26:01;;;;;;;9.30;8.50;;;;;;;21.14;45.91;101599.31;5041337;28;20218;-64
2021/06/03 04:28:27;;;;;;;11.13;8.83;;;;;;;22.03;44.18;101606.22;5040729;28;20186;-66
2021/06/03 04:30:52;;;;;;;9.00;8.10;;;;;;;22.69;42.15;101595.66;5041247;28;20224;-65
2021/06/03 04:33:21;;;;;;;8.80;7.87;;;;;;;22.18;42.95;101608.47;5041340;28;20201;-68
2021/06/03 04:35:47;;;;;;;10.40;8.37;;;;;;;21.52;44.43;101602.03;5042392;28;20202;-65
2021/06/03 04:38:12;;;;;;;9.03;8.13;;;;;;;20.45;47.02;101616.50;5041196;28;20443;-65
2021/06/03 04:40:37;;;;;;;9.30;8.40;;;;;;;20.31;47.32;101616.72;5041148;28;20437;-65
2021/06/03 04:43:03;;;;;;;9.73;8.77;;;;;;;19.59;48.57;101605.47;5041366;28;20209;-65
2021/06/03 04:45:28;;;;;;;9.50;8.60;;;;;;;20.36;47.73;101621.06;5042293;28;20197;-65
2021/06/03 04:47:54;;;;;;;11.07;9.13;;;;;;;20.09;48.60;101618.88;5040895;28;20174;-65
2021/06/03 04:50:21;;;;;;;9.20;8.37;;;;;;;20.29;48.06;101624.69;5040772;28;20178;-65
2021/06/03 04:52:47;;;;;;;11.53;9.27;;;;;;;20.58;47.23;101617.16;5057842;28;20192;-65
2021/06/03 04:55:15;;;;;;;10.20;9.40;;;;;;;19.88;49.18;101628.00;5060914;28;20491;-66
2021/06/03 04:57:41;;;;;;;11.60;9.17;;;;;;;20.46;47.48;101632.38;5048491;28;20470;-66
2021/06/03 05:00:10;;;;;;;10.00;9.20;;;;;;;19.52;49.85;101631.13;5041003;28;20441;-66
2021/06/03 05:02:36;;;;;;;10.67;9.67;;;;;;;20.06;48.73;101625.09;5040466;28;20437;-64
2021/06/03 05:05:01;;;;;;;10.57;9.57;;;;;;;19.78;49.52;101621.94;5041206;28;20427;-65
2021/06/03 05:07:26;;;;;;;10.10;8.90;;;;;;;20.64;47.67;101625.00;5043172;28;20423;-64
2021/06/03 05:09:52;;;;;;;10.53;9.47;;;;;;;19.51;50.11;101624.06;5040483;28;20232;-65
2021/06/03 05:12:17;;;;;;;10.10;9.17;;;;;;;19.85;49.32;101613.94;5040650;28;20528;-65
2021/06/03 05:14:43;;;;;;;10.30;9.50;;;;;;;19.37;50.48;101626.06;5040489;28;20196;-65
2021/06/03 05:17:08;;;;;;;11.60;9.10;;;;;;;20.44;48.09;101618.28;5048300;28;20186;-65
2021/06/03 05:19:34;;;;;;;13.97;9.80;;;;;;;20.45;47.31;101624.47;5059711;28;20676;-66
2021/06/03 05:22:00;;;;;;;13.73;9.20;;;;;;;21.34;45.61;101625.41;5060408;28;20535;-66
2021/06/03 05:24:25;;;;;;;11.33;8.97;;;;;;;19.75;48.91;101624.66;5046841;28;20487;-65
2021/06/03 05:26:51;;;;;;;9.53;8.77;;;;;;;19.83;48.18;101630.72;5040215;28;20178;-64
2021/06/03 05:29:16;;;;;;;10.83;9.83;;;;;;;20.41;47.21;101618.34;5040223;28;20181;-65
2021/06/03 05:31:42;;;;;;;10.63;9.30;;;;;;;20.98;46.23;101622.59;5040059;28;20220;-66
2021/06/03 05:34:08;;;;;;;11.63;8.67;;;;;;;20.15;47.81;101626.72;5041290;28;20174;-65
2021/06/03 05:36:33;;;;;;;9.20;8.30;;;;;;;20.49;47.53;101627.00;5040927;28;20415;-66
2021/06/03 05:38:58;;;;;;;10.47;9.20;;;;;;;20.07;48.68;101626.84;5039493;28;20196;-66
2021/06/03 05:41:24;;;;;;;9.90;9.00;;;;;;;20.92;46.77;101632.44;5040221;28;20178;-66
2021/06/03 05:43:49;;;;;;;11.23;9.83;;;;;;;20.16;48.53;101639.94;5039791;28;20174;-65
2021/06/03 05:46:14;;;;;;;9.97;9.00;;;;;;;20.33;47.82;101629.03;5039945;28;20240;-65
2021/06/03 05:48:40;;;;;;;9.40;8.50;;;;;;;20.74;47.61;101623.94;5040169;28;20179;-66
2021/06/03 05:51:08;;;;;;;10.57;9.47;;;;;;;20.67;47.06;101638.19;5039595;28;20471;-65
2021/06/03 05:53:34;;;;;;;9.00;8.10;;;;;;;20.85;46.62;101627.28;5040877;28;20495;-65
2021/06/03 05:55:59;;;;;;;9.13;8.43;;;;;;;21.35;45.23;101621.88;5041444;28;20430;-66
2021/06/03 05:58:24;;;;;;;9.23;8.10;;;;;;;20.95;46.29;101630.63;5051014;28;20273;-65
2021/06/03 06:00:50;;;;;;;9.03;8.23;;;;;;;20.71;46.97;101625.78;5040701;28;20182;-65
2021/06/03 06:03:18;;;;;;;10.23;9.43;;;;;;;21.08;46.43;101620.66;5039869;28;20233;-65
2021/06/03 06:06:08;;;;;;;10.03;8.90;;;;;;;20.82;46.57;101635.31;5041747;28;20194;-66
2021/06/03 06:08:33;;;;;;;10.07;9.10;;;;;;;22.30;43.31;101635.63;5067969;28;20488;-65
2021/06/03 06:10:59;;;;;;;13.20;8.23;;;;;;;21.41;44.70;101634.13;5062043;28;20464;-65
2021/06/03 06:13:24;;;;;;;9.00;8.20;;;;;;;22.47;42.75;101632.59;5051911;28;20194;-65
2021/06/03 06:15:50;;;;;;;9.67;8.67;;;;;;;21.64;44.32;101635.44;5055519;28;20543;-66
2021/06/03 06:18:15;;;;;;;10.23;8.60;;;;;;;21.84;43.79;101640.28;5059422;28;20220;-65
2021/06/03 06:20:40;;;;;;;9.70;8.87;;;;;;;21.95;44.29;101640.91;5059342;28;20177;-65
2021/06/03 06:23:07;;;;;;;9.37;8.47;;;;;;;22.22;43.18;101643.81;5070168;28;20546;-66
2021/06/03 06:25:32;;;;;;;11.00;8.53;;;;;;;22.29;43.37;101658.69;5060999;28;20308;-64
2021/06/03 06:27:58;;;;;;;10.90;8.50;;;;;;;20.83;46.52;101663.53;5039006;28;20456;-65
2021/06/03 06:30:24;;;;;;;11.93;8.87;;;;;;;21.42;45.80;101662.41;5054064;28;20513;-65
2021/06/03 06:32:50;;;;;;;9.90;9.00;;;;;;;20.91;47.05;101657.22;5058553;28;20559;-66
2021/06/03 06:35:17;;;;;;;9.57;8.50;;;;;;;21.07;46.68;101656.03;5053685;28;20442;-65
2021/06/03 06:37:43;;;;;;;10.50;9.60;;;;;;;21.27;46.78;101652.97;5038048;28;20170;-66
2021/06/03 06:40:09;;;;;;;11.10;10.10;;;;;;;21.58;45.66;101656.78;5038729;28;20444;-66
2021/06/03 06:42:35;;;;;;;9.90;9.00;;;;;;;21.33;46.08;101655.50;5038595;28;20807;-66
2021/06/03 06:45:01;;;;;;;10.63;9.63;;;;;;;21.45;46.00;101649.06;5038870;28;20409;-66
2021/06/03 06:47:27;;;;;;;10.73;9.63;;;;;;;21.44;46.28;101670.31;5038131;28;20218;-65
2021/06/03 06:49:52;;;;;;;10.67;9.63;;;;;;;20.90;46.84;101661.63;5038133;28;20704;-64
2021/06/03 06:52:17;;;;;;;9.43;8.73;;;;;;;22.26;44.67;101658.75;5038280;28;20224;-65
2021/06/03 06:54:43;;;;;;;9.10;8.30;;;;;;;21.76;45.22;101672.31;5040069;28;20312;-65
2021/06/03 06:57:08;;;;;;;10.53;9.50;;;;;;;22.27;44.59;101672.91;5037908;28;20220;-65
2021/06/03 06:59:34;;;;;;;9.80;8.87;;;;;;;22.63;42.44;101673.78;5037878;28;20198;-65
2021/06/03 07:01:59;;;;;;;9.67;8.67;;;;;;;24.97;38.17;101677.38;5038186;28;20182;-65
2021/06/03 07:04:25;;;;;;;10.13;9.20;;;;;;;24.33;40.10;101670.66;5042420;28;20559;-66
2021/06/03 07:06:50;;;;;;;10.17;9.17;;;;;;;22.68;42.70;101679.00;5040164;28;20536;-66
2021/06/03 07:09:15;;;;;;;9.77;8.87;;;;;;;22.27;43.77;101683.53;5039548;28;20185;-65
2021/06/03 07:11:41;;;;;;;10.33;9.07;;;;;;;22.79;43.03;101682.25;5051538;28;20234;-65
2021/06/03 07:14:06;;;;;;;11.00;10.00;;;;;;;23.99;40.87;101675.28;5045365;28;20186;-66
2021/06/03 07:16:31;;;;;;;9.33;8.43;;;;;;;24.55;39.28;101681.47;5039936;28;20198;-67
2021/06/03 07:18:57;;;;;;;9.27;8.33;;;;;;;25.90;36.53;101672.13;5037987;28;20548;-65
2021/06/03 07:21:22;;;;;;;10.00;8.77;;;;;;;26.67;35.49;101663.63;5038276;28;20170;-66
2021/06/03 07:23:48;;;;;;;9.80;8.80;;;;;;;28.04;33.08;101660.97;5040380;28;20440;-65
2021/06/03 07:26:14;;;;;;;9.17;8.20;;;;;;;27.07;33.87;101661.00;5039229;28;20314;-66
2021/06/03 07:28:39;;;;;;;8.30;7.60;;;;;;;25.31;36.88;101670.81;5037750;28;20198;-66
2021/06/03 07:31:04;;;;;;;12.97;7.83;;;;;;;25.01;38.57;101671.88;5037713;28;20209;-66
2021/06/03 07:33:30;;;;;;;8.03;7.40;;;;;;;27.00;34.50;101655.03;5037550;28;20196;-66
2021/06/03 07:35:55;;;;;;;8.40;7.60;;;;;;;27.26;34.25;101657.47;5038079;28;20178;-66
2021/06/03 07:38:21;;;;;;;8.40;7.60;;;;;;;26.06;35.58;101661.72;5054416;28;20193;-66
2021/06/03 07:40:46;;;;;;;8.80;7.90;;;;;;;25.16;38.93;101666.91;5056556;28;20174;-66
2021/06/03 07:43:13;;;;;;;8.67;7.87;;;;;;;26.26;35.38;101666.22;5040856;28;20563;-64
2021/06/03 07:45:40;;;;;;;9.17;7.87;;;;;;;26.44;35.84;101669.94;5043182;28;20189;-65
2021/06/03 07:48:05;;;;;;;9.90;8.13;;;;;;;25.54;37.57;101668.16;5037663;28;20428;-65
2021/06/03 07:50:32;;;;;;;9.10;7.87;;;;;;;24.04;40.68;101664.47;5041295;28;20555;-65
2021/06/03 07:52:59;;;;;;;9.87;8.97;;;;;;;25.55;37.83;101667.22;5042221;28;20931;-65
2021/06/03 07:55:25;;;;;;;8.60;7.83;;;;;;;26.02;36.47;101669.00;5057668;28;20450;-67
2021/06/03 07:57:52;;;;;;;8.53;7.43;;;;;;;27.43;34.27;101662.97;5043688;28;20436;-65
2021/06/03 08:00:19;;;;;;;10.53;7.83;;;;;;;26.97;35.06;101649.84;5041729;28;20185;-67
2021/06/03 08:02:45;;;;;;;9.30;7.93;;;;;;;24.07;41.21;101667.03;5055757;28;20435;-66
2021/06/03 08:05:12;;;;;;;8.53;7.83;;;;;;;24.22;40.96;101663.03;5045453;28;20447;-67
2021/06/03 08:07:37;;;;;;;8.37;7.70;;;;;;;24.30;40.35;101660.09;5044589;28;20460;-66
2021/06/03 08:10:08;;;;;;;8.80;8.00;;;;;;;25.46;37.78;101664.06;5054981;28;20926;-65
2021/06/03 08:12:33;;;;;;;8.70;7.87;;;;;;;27.11;34.78;101651.03;5061631;28;20201;-66
2021/06/03 08:14:58;;;;;;;12.93;8.50;;;;;;;26.46;36.21;101656.50;5052512;28;20840;-67
2021/06/03 08:17:24;;;;;;;8.47;7.33;;;;;;;27.10;35.28;101646.59;5050389;28;20181;-66
2021/06/03 08:19:49;;;;;;;8.70;7.90;;;;;;;27.80;33.87;101642.44;5046856;28;20178;-67
2021/06/03 08:22:14;;;;;;;8.30;7.50;;;;;;;28.50;33.18;101639.00;5041053;28;20188;-68
2021/06/03 08:24:40;;;;;;;9.70;8.00;;;;;;;27.54;34.01;101644.56;5040756;28;20265;-69
2021/06/03 08:27:05;;;;;;;7.93;7.33;;;;;;;27.36;33.73;101654.34;5052287;28;20224;-67
2021/06/03 08:29:31;;;;;;;7.63;7.00;;;;;;;28.72;32.79;101650.38;5050180;28;20196;-66
2021/06/03 08:31:56;;;;;;;7.87;7.07;;;;;;;28.85;31.73;101647.91;5045805;28;20213;-67
2021/06/03 08:34:21;;;;;;;7.43;6.73;;;;;;;27.86;33.83;101652.88;5052872;28;20467;-67
2021/06/03 08:36:47;;;;;;;7.90;7.20;;;;;;;27.38;33.93;101668.50;5042110;28;20192;-67
2021/06/03 08:39:13;;;;;;;7.73;7.10;;;;;;;26.48;36.00;101670.66;5040892;28;20451;-67
2021/06/03 08:41:40;;;;;;;8.47;7.57;;;;;;;26.53;35.60;101676.69;5059493;28;20454;-67
2021/06/03 08:44:06;;;;;;;7.40;6.73;;;;;;;25.64;36.29;101673.16;5061041;28;20507;-67
2021/06/03 08:46:32;;;;;;;7.30;6.70;;;;;;;25.81;36.41;101657.31;5047613;28;20482;-67
2021/06/03 08:49:00;;;;;;;8.30;6.93;;;;;;;26.02;36.00;101660.97;5046149;28;20529;-66
2021/06/03 08:51:26;;;;;;;17.27;7.20;;;;;;;26.38;35.96;101656.84;5059301;28;20471;-66
2021/06/03 08:53:51;;;;;;;7.70;6.80;;;;;;;26.88;34.58;101645.75;5059302;28;20497;-69
2021/06/03 08:56:19;;;;;;;8.23;7.53;;;;;;;27.02;34.53;101650.50;5058612;28;20261;-68
2021/06/03 08:58:53;;;;;;;7.80;7.10;;;;;;;27.31;34.62;101650.13;5058901;28;20343;-67
2021/06/03 09:01:20;;;;;;;8.03;7.27;;;;;;;28.18;33.91;101645.06;5058889;28;20431;-67
2021/06/03 09:03:47;;;;;;;10.47;8.20;;;;;;;27.43;35.07;101654.94;5060926;28;20408;-66
2021/06/03 09:06:15;;;;;;;8.60;7.77;;;;;;;29.39;31.87;101653.09;5055879;28;20490;-68
2021/06/03 09:08:52;;;;;;;8.10;7.30;;;;;;;27.77;34.61;101655.13;5060221;28;20688;-68
2021/06/03 09:11:19;;;;;;;9.03;8.13;;;;;;;27.39;35.59;101653.34;5041424;28;20727;-67
2021/06/03 09:13:50;;;;;;;15.13;7.83;;;;;;;25.92;37.33;101654.22;5041564;28;20519;-67
2021/06/03 09:16:20;;;;;;;10.17;7.73;;;;;;;26.70;36.58;101650.13;5050141;28;20433;-65
2021/06/03 09:18:53;;;;;;;7.63;6.93;;;;;;;26.46;36.30;101651.16;5040128;28;20788;-66
2021/06/03 09:21:23;;;;;;;7.43;6.50;;;;;;;27.30;34.49;101645.69;5041743;28;20427;-66
2021/06/03 09:24:19;;;;;;;8.90;7.90;;;;;;;27.05;35.81;101658.38;5050777;28;20443;-66
2021/06/03 09:26:58;;;;;;;7.97;7.27;;;;;;;27.29;35.17;101642.16;5040125;28;20460;-67
2021/06/03 09:29:29;;;;;;;7.63;6.90;;;;;;;26.36;36.19;101658.72;5042477;28;20866;-67
2021/06/03 09:32:20;;;;;;;8.73;7.80;;;;;;;26.69;35.82;101672.41;5039991;28;20464;-66
2021/06/03 09:34:53;;;;;;;8.07;7.27;;;;;;;25.62;38.23;101672.34;5041175;28;20547;-67
2021/06/03 09:37:19;;;;;;;9.80;7.63;;;;;;;26.04;38.17;101684.97;5039577;28;20463;-68
2021/06/03 09:39:44;;;;;;;9.57;6.90;;;;;;;25.10;38.74;101681.34;5040123;28;20421;-68
2021/06/03 09:42:18;;;;;;;8.03;7.33;;;;;;;25.44;38.51;101680.13;5043972;28;20178;-67
2021/06/03 09:44:50;;;;;;;9.20;7.40;;;;;;;25.84;37.53;101685.72;5040366;28;20193;-66
2021/06/03 09:47:20;;;;;;;8.03;7.20;;;;;;;24.25;40.33;101694.00;5038907;28;20797;-66
2021/06/03 09:49:56;;;;;;;9.30;7.50;;;;;;;25.39;38.30;101684.78;5041317;28;20442;-67
2021/06/03 09:52:32;;;;;;;17.23;7.53;;;;;;;25.54;37.95;101707.34;5057613;28;20968;-67
2021/06/03 09:55:01;;;;;;;7.83;7.03;;;;;;;24.95;38.33;101693.47;5056818;28;20447;-67
2021/06/03 09:57:32;;;;;;;10.33;7.10;;;;;;;24.94;38.44;101701.47;5044961;28;20840;-66
2021/06/03 10:00:00;;;;;;;8.00;6.93;;;;;;;25.20;37.90;101690.75;5047711;28;20456;-67
2021/06/03 10:02:25;;;;;;;8.17;7.47;;;;;;;24.79;39.03;101695.78;5039470;28;20447;-66
2021/06/03 10:04:54;;;;;;;7.53;6.77;;;;;;;24.79;38.21;101717.13;5039396;28;20803;-65
2021/06/03 10:07:30;;;;;;;8.03;7.33;;;;;;;25.04;37.78;101700.25;5038482;28;20178;-66
2021/06/03 10:10:04;;;;;;;7.57;6.87;;;;;;;24.23;38.94;101704.72;5049459;28;20448;-67
2021/06/03 10:12:36;;;;;;;7.67;7.07;;;;;;;24.97;37.98;101709.41;5051915;28;20701;-67
2021/06/03 10:15:11;;;;;;;7.67;6.97;;;;;;;24.62;38.24;101707.03;5059062;28;20420;-66
2021/06/03 10:17:48;;;;;;;8.80;6.80;;;;;;;24.59;37.95;101708.91;5043812;28;20450;-66
2021/06/03 10:20:16;;;;;;;10.60;7.53;;;;;;;24.41;37.63;101702.38;5053644;28;20443;-66
2021/06/03 10:22:44;;;;;;;7.03;6.37;;;;;;;24.61;37.22;101715.91;5042328;28;20450;-66
2021/06/03 10:25:13;;;;;;;6.97;6.37;;;;;;;25.36;35.82;101707.09;5046769;28;20519;-67
2021/06/03 10:27:53;;;;;;;9.00;7.10;;;;;;;25.20;35.91;101712.09;5059169;28;20423;-67
2021/06/03 10:30:28;;;;;;;14.60;6.90;;;;;;;25.36;36.03;101711.59;5058944;28;20459;-68
2021/06/03 10:32:55;;;;;;;7.63;6.97;;;;;;;25.03;36.19;101711.84;5057598;28;20470;-66
2021/06/03 10:35:25;;;;;;;7.27;6.60;;;;;;;25.36;35.86;101722.25;5044585;28;20455;-65
2021/06/03 10:37:50;;;;;;;7.10;6.50;;;;;;;25.03;36.54;101711.84;5038515;28;20752;-66
2021/06/03 10:40:27;;;;;;;7.70;7.07;;;;;;;25.12;36.23;101718.66;5045391;28;20459;-66
2021/06/03 10:42:53;;;;;;;7.60;6.80;;;;;;;25.19;36.22;101726.38;5048115;28;20197;-65
2021/06/03 10:45:20;;;;;;;8.30;6.67;;;;;;;25.05;36.40;101734.00;5040285;28;20453;-66
2021/06/03 10:47:46;;;;;;;8.30;7.10;;;;;;;25.04;37.04;101727.78;5037859;28;20194;-67
2021/06/03 10:50:14;;;;;;;7.87;7.13;;;;;;;24.65;37.41;101725.59;5038574;28;20452;-67
2021/06/03 10:52:40;;;;;;;8.63;7.83;;;;;;;24.81;37.42;101733.06;5038061;28;20198;-67
2021/06/03 10:55:07;;;;;;;7.67;7.07;;;;;;;24.94;37.27;101726.38;5040065;28;20710;-68
2021/06/03 10:57:48;;;;;;;13.70;12.47;;;;;;;25.24;36.50;101726.22;5038329;28;20413;-66
2021/06/03 11:00:24;;;;;;;7.70;7.00;;;;;;;24.85;37.56;101732.91;5038093;28;20427;-67
2021/06/03 11:02:51;;;;;;;8.73;7.57;;;;;;;24.75;38.02;101735.94;5037783;28;20452;-67
2021/06/03 11:05:28;;;;;;;8.10;7.40;;;;;;;25.25;37.42;101733.31;5051839;28;20451;-66
2021/06/03 11:07:54;;;;;;;8.07;7.37;;;;;;;25.35;37.11;101741.88;5049279;28;20440;-67
2021/06/03 11:10:26;;;;;;;8.53;6.90;;;;;;;25.22;37.08;101736.06;5038029;28;20424;-67
2021/06/03 11:13:11;;;;;;;9.30;8.50;;;;;;;24.95;38.14;101740.59;5039668;28;20472;-68
2021/06/03 11:16:01;;;;;;;8.57;7.70;;;;;;;24.59;38.33;101736.44;5054176;28;20447;-68
2021/06/03 11:18:44;;;;;;;8.37;7.47;;;;;;;24.63;38.87;101727.44;5050261;28;20421;-67
2021/06/03 11:21:37;;;;;;;7.77;7.07;;;;;;;24.17;39.68;101732.44;5037723;28;20424;-68
2021/06/03 11:24:14;;;;;;;10.17;8.67;;;;;;;24.55;39.04;101727.66;5049590;28;20454;-68
2021/06/03 11:26:45;;;;;;;10.60;9.57;;;;;;;25.37;37.92;101735.56;5048062;28;20440;-69